sensor_id;sensor_type;location;lat;lon;timestamp;P1;durP1;ratioP1;P2;durP2;ratioP2
71253;SDS011;59019;47.638;18.966;2023-03-24T00:02:03;14.82;;;7.22;;
71253;SDS011;59019;47.638;18.966;2023-03-24T00:04:31;12.87;;;7.07;;
71253;SDS011;59019;47.638;18.966;2023-03-24T00:06:58;14.88;;;7.05;;
71253;SDS011;59019;47.638;18.966;2023-03-24T00:09:26;16.08;;;7.25;;
71253;SDS011;59019;47.638;18.966;2023-03-24T00:11:54;14.13;;;7.60;;
71253;SDS011;59019;47.638;18.966;2023-03-24T00:14:20;17.70;;;8.52;;
71253;SDS011;59019;47.638;18.966;2023-03-24T00:16:47;14.90;;;8.03;;
71253;SDS011;59019;47.638;18.966;2023-03-24T00:19:14;13.63;;;7.55;;
71253;SDS011;59019;47.638;18.966;2023-03-24T00:21:41;15.35;;;7.53;;
71253;SDS011;59019;47.638;18.966;2023-03-24T00:24:08;14.07;;;7.25;;
71253;SDS011;59019;47.638;18.966;2023-03-24T00:26:36;14.35;;;7.35;;
71253;SDS011;59019;47.638;18.966;2023-03-24T00:29:04;13.87;;;6.87;;
71253;SDS011;59019;47.638;18.966;2023-03-24T00:31:31;17.45;;;8.00;;
71253;SDS011;59019;47.638;18.966;2023-03-24T00:33:57;17.38;;;8.18;;
71253;SDS011;59019;47.638;18.966;2023-03-24T00:36:24;14.88;;;7.45;;
71253;SDS011;59019;47.638;18.966;2023-03-24T00:38:51;15.47;;;7.97;;
71253;SDS011;59019;47.638;18.966;2023-03-24T00:41:17;15.20;;;7.65;;
71253;SDS011;59019;47.638;18.966;2023-03-24T00:43:47;14.63;;;6.40;;
71253;SDS011;59019;47.638;18.966;2023-03-24T00:46:14;14.85;;;7.32;;
71253;SDS011;59019;47.638;18.966;2023-03-24T00:48:53;15.70;;;7.00;;
71253;SDS011;59019;47.638;18.966;2023-03-24T00:51:30;13.90;;;6.73;;
71253;SDS011;59019;47.638;18.966;2023-03-24T00:53:58;15.48;;;7.53;;
71253;SDS011;59019;47.638;18.966;2023-03-24T00:56:25;13.02;;;6.53;;
71253;SDS011;59019;47.638;18.966;2023-03-24T00:58:52;12.88;;;7.03;;
71253;SDS011;59019;47.638;18.966;2023-03-24T01:01:18;14.00;;;7.13;;
71253;SDS011;59019;47.638;18.966;2023-03-24T01:03:46;14.70;;;7.65;;
71253;SDS011;59019;47.638;18.966;2023-03-24T01:06:15;13.00;;;6.60;;
71253;SDS011;59019;47.638;18.966;2023-03-24T01:08:42;14.68;;;6.63;;
71253;SDS011;59019;47.638;18.966;2023-03-24T01:11:09;12.70;;;7.10;;
71253;SDS011;59019;47.638;18.966;2023-03-24T01:13:35;13.70;;;6.80;;
71253;SDS011;59019;47.638;18.966;2023-03-24T01:16:00;13.90;;;6.90;;
71253;SDS011;59019;47.638;18.966;2023-03-24T01:18:27;12.43;;;6.35;;
71253;SDS011;59019;47.638;18.966;2023-03-24T01:20:53;14.67;;;6.80;;
71253;SDS011;59019;47.638;18.966;2023-03-24T01:23:22;12.25;;;6.40;;
71253;SDS011;59019;47.638;18.966;2023-03-24T01:25:50;11.70;;;6.63;;
71253;SDS011;59019;47.638;18.966;2023-03-24T01:28:20;13.65;;;6.88;;
71253;SDS011;59019;47.638;18.966;2023-03-24T01:30:49;11.43;;;6.18;;
71253;SDS011;59019;47.638;18.966;2023-03-24T01:33:16;13.25;;;6.25;;
71253;SDS011;59019;47.638;18.966;2023-03-24T01:35:41;15.20;;;6.60;;
71253;SDS011;59019;47.638;18.966;2023-03-24T01:38:08;13.23;;;6.45;;
71253;SDS011;59019;47.638;18.966;2023-03-24T01:40:36;14.38;;;6.40;;
71253;SDS011;59019;47.638;18.966;2023-03-24T01:43:04;12.23;;;6.72;;
71253;SDS011;59019;47.638;18.966;2023-03-24T01:48:06;12.18;;;5.95;;
71253;SDS011;59019;47.638;18.966;2023-03-24T01:50:36;12.43;;;6.30;;
71253;SDS011;59019;47.638;18.966;2023-03-24T01:53:02;13.88;;;6.22;;
71253;SDS011;59019;47.638;18.966;2023-03-24T01:55:28;13.03;;;6.70;;
71253;SDS011;59019;47.638;18.966;2023-03-24T01:57:56;19.10;;;8.23;;
71253;SDS011;59019;47.638;18.966;2023-03-24T02:00:25;17.58;;;7.38;;
71253;SDS011;59019;47.638;18.966;2023-03-24T02:02:55;15.90;;;7.60;;
71253;SDS011;59019;47.638;18.966;2023-03-24T02:05:31;13.57;;;6.38;;
71253;SDS011;59019;47.638;18.966;2023-03-24T02:11:27;13.70;;;6.53;;
71253;SDS011;59019;47.638;18.966;2023-03-24T02:13:55;12.90;;;6.47;;
71253;SDS011;59019;47.638;18.966;2023-03-24T02:35:53;14.40;;;6.60;;
71253;SDS011;59019;47.638;18.966;2023-03-24T02:47:14;12.98;;;6.57;;
71253;SDS011;59019;47.638;18.966;2023-03-24T02:49:53;11.87;;;6.67;;
71253;SDS011;59019;47.638;18.966;2023-03-24T02:58:09;12.45;;;6.57;;
71253;SDS011;59019;47.638;18.966;2023-03-24T03:00:49;14.50;;;7.93;;
71253;SDS011;59019;47.638;18.966;2023-03-24T03:03:27;12.85;;;7.18;;
71253;SDS011;59019;47.638;18.966;2023-03-24T03:06:03;13.68;;;7.70;;
71253;SDS011;59019;47.638;18.966;2023-03-24T03:08:36;12.60;;;7.40;;
71253;SDS011;59019;47.638;18.966;2023-03-24T03:11:05;12.70;;;7.45;;
71253;SDS011;59019;47.638;18.966;2023-03-24T03:16:06;12.25;;;6.07;;
71253;SDS011;59019;47.638;18.966;2023-03-24T03:18:42;12.77;;;6.45;;
71253;SDS011;59019;47.638;18.966;2023-03-24T03:21:17;13.30;;;6.27;;
71253;SDS011;59019;47.638;18.966;2023-03-24T03:23:53;12.95;;;6.80;;
71253;SDS011;59019;47.638;18.966;2023-03-24T03:26:26;14.18;;;7.03;;
71253;SDS011;59019;47.638;18.966;2023-03-24T03:28:57;15.15;;;6.68;;
71253;SDS011;59019;47.638;18.966;2023-03-24T03:31:52;14.38;;;6.53;;
71253;SDS011;59019;47.638;18.966;2023-03-24T03:37:19;13.43;;;6.63;;
71253;SDS011;59019;47.638;18.966;2023-03-24T03:39:53;14.38;;;6.60;;
71253;SDS011;59019;47.638;18.966;2023-03-24T03:42:22;12.38;;;6.50;;
71253;SDS011;59019;47.638;18.966;2023-03-24T03:44:48;14.93;;;6.97;;
71253;SDS011;59019;47.638;18.966;2023-03-24T03:47:13;10.83;;;6.10;;
71253;SDS011;59019;47.638;18.966;2023-03-24T03:49:41;11.95;;;6.15;;
71253;SDS011;59019;47.638;18.966;2023-03-24T03:52:07;12.20;;;6.73;;
71253;SDS011;59019;47.638;18.966;2023-03-24T03:54:34;15.25;;;6.68;;
71253;SDS011;59019;47.638;18.966;2023-03-24T03:57:02;13.32;;;6.57;;
71253;SDS011;59019;47.638;18.966;2023-03-24T03:59:32;12.75;;;6.75;;
71253;SDS011;59019;47.638;18.966;2023-03-24T04:02:07;12.20;;;6.53;;
71253;SDS011;59019;47.638;18.966;2023-03-24T04:22:28;13.02;;;6.40;;
71253;SDS011;59019;47.638;18.966;2023-03-24T04:25:16;13.90;;;7.25;;
71253;SDS011;59019;47.638;18.966;2023-03-24T04:27:59;12.77;;;7.18;;
71253;SDS011;59019;47.638;18.966;2023-03-24T04:33:16;15.90;;;8.20;;
71253;SDS011;59019;47.638;18.966;2023-03-24T04:35:59;13.63;;;7.13;;
71253;SDS011;59019;47.638;18.966;2023-03-24T04:38:40;16.80;;;8.15;;
71253;SDS011;59019;47.638;18.966;2023-03-24T04:41:09;13.60;;;6.90;;
71253;SDS011;59019;47.638;18.966;2023-03-24T04:43:36;16.42;;;7.10;;
71253;SDS011;59019;47.638;18.966;2023-03-24T04:46:03;14.37;;;7.30;;
71253;SDS011;59019;47.638;18.966;2023-03-24T04:48:31;13.27;;;6.75;;
71253;SDS011;59019;47.638;18.966;2023-03-24T04:50:57;12.60;;;7.13;;
71253;SDS011;59019;47.638;18.966;2023-03-24T04:53:25;13.40;;;7.32;;
71253;SDS011;59019;47.638;18.966;2023-03-24T04:58:52;13.37;;;7.23;;
71253;SDS011;59019;47.638;18.966;2023-03-24T05:01:18;15.23;;;8.20;;
71253;SDS011;59019;47.638;18.966;2023-03-24T05:03:46;16.85;;;8.50;;
71253;SDS011;59019;47.638;18.966;2023-03-24T05:06:13;15.70;;;8.83;;
71253;SDS011;59019;47.638;18.966;2023-03-24T05:08:38;13.27;;;7.47;;
71253;SDS011;59019;47.638;18.966;2023-03-24T05:11:05;15.17;;;8.33;;
71253;SDS011;59019;47.638;18.966;2023-03-24T05:13:31;18.67;;;8.82;;
71253;SDS011;59019;47.638;18.966;2023-03-24T05:15:56;13.57;;;7.50;;
71253;SDS011;59019;47.638;18.966;2023-03-24T05:18:22;15.38;;;7.18;;
71253;SDS011;59019;47.638;18.966;2023-03-24T05:20:48;13.93;;;7.63;;
71253;SDS011;59019;47.638;18.966;2023-03-24T05:23:14;14.73;;;7.63;;
71253;SDS011;59019;47.638;18.966;2023-03-24T05:25:40;13.57;;;7.10;;
71253;SDS011;59019;47.638;18.966;2023-03-24T05:28:05;15.13;;;7.80;;
71253;SDS011;59019;47.638;18.966;2023-03-24T05:30:31;13.73;;;7.13;;
71253;SDS011;59019;47.638;18.966;2023-03-24T05:32:57;13.27;;;7.43;;
71253;SDS011;59019;47.638;18.966;2023-03-24T05:35:22;14.52;;;6.95;;
71253;SDS011;59019;47.638;18.966;2023-03-24T05:37:49;14.48;;;8.15;;
71253;SDS011;59019;47.638;18.966;2023-03-24T05:40:15;12.90;;;7.13;;
71253;SDS011;59019;47.638;18.966;2023-03-24T05:42:41;13.65;;;7.13;;
71253;SDS011;59019;47.638;18.966;2023-03-24T05:45:09;13.63;;;6.95;;
71253;SDS011;59019;47.638;18.966;2023-03-24T05:47:35;16.33;;;9.25;;
71253;SDS011;59019;47.638;18.966;2023-03-24T05:50:01;16.20;;;8.48;;
71253;SDS011;59019;47.638;18.966;2023-03-24T05:52:27;14.98;;;8.25;;
71253;SDS011;59019;47.638;18.966;2023-03-24T05:54:52;15.37;;;7.57;;
71253;SDS011;59019;47.638;18.966;2023-03-24T05:57:19;13.77;;;8.20;;
71253;SDS011;59019;47.638;18.966;2023-03-24T05:59:45;15.35;;;7.47;;
71253;SDS011;59019;47.638;18.966;2023-03-24T06:02:11;13.75;;;7.13;;
71253;SDS011;59019;47.638;18.966;2023-03-24T06:04:36;14.63;;;7.77;;
71253;SDS011;59019;47.638;18.966;2023-03-24T06:07:03;15.07;;;7.50;;
71253;SDS011;59019;47.638;18.966;2023-03-24T06:09:29;14.07;;;7.50;;
71253;SDS011;59019;47.638;18.966;2023-03-24T06:12:03;14.57;;;7.93;;
71253;SDS011;59019;47.638;18.966;2023-03-24T06:14:29;14.43;;;7.53;;
71253;SDS011;59019;47.638;18.966;2023-03-24T06:16:55;17.70;;;7.93;;
71253;SDS011;59019;47.638;18.966;2023-03-24T06:19:24;14.63;;;7.82;;
71253;SDS011;59019;47.638;18.966;2023-03-24T06:21:51;16.17;;;7.95;;
71253;SDS011;59019;47.638;18.966;2023-03-24T06:24:17;14.57;;;8.25;;
71253;SDS011;59019;47.638;18.966;2023-03-24T06:26:43;13.75;;;7.85;;
71253;SDS011;59019;47.638;18.966;2023-03-24T06:29:10;16.80;;;9.50;;
71253;SDS011;59019;47.638;18.966;2023-03-24T06:31:37;17.30;;;9.38;;
71253;SDS011;59019;47.638;18.966;2023-03-24T06:34:03;15.07;;;8.93;;
71253;SDS011;59019;47.638;18.966;2023-03-24T06:36:29;15.90;;;9.30;;
71253;SDS011;59019;47.638;18.966;2023-03-24T06:38:55;17.07;;;9.13;;
71253;SDS011;59019;47.638;18.966;2023-03-24T06:41:22;19.40;;;9.95;;
71253;SDS011;59019;47.638;18.966;2023-03-24T06:43:48;17.42;;;9.65;;
71253;SDS011;59019;47.638;18.966;2023-03-24T06:46:13;14.80;;;8.93;;
71253;SDS011;59019;47.638;18.966;2023-03-24T06:48:39;15.48;;;9.00;;
71253;SDS011;59019;47.638;18.966;2023-03-24T06:51:06;16.77;;;9.57;;
71253;SDS011;59019;47.638;18.966;2023-03-24T06:53:33;14.77;;;8.82;;
71253;SDS011;59019;47.638;18.966;2023-03-24T06:55:59;17.67;;;9.77;;
71253;SDS011;59019;47.638;18.966;2023-03-24T06:58:24;18.50;;;9.97;;
71253;SDS011;59019;47.638;18.966;2023-03-24T07:00:56;17.57;;;9.97;;
71253;SDS011;59019;47.638;18.966;2023-03-24T07:03:21;18.35;;;10.75;;
71253;SDS011;59019;47.638;18.966;2023-03-24T07:05:47;18.17;;;10.50;;
71253;SDS011;59019;47.638;18.966;2023-03-24T07:08:13;31.97;;;11.50;;
71253;SDS011;59019;47.638;18.966;2023-03-24T07:10:38;19.23;;;10.77;;
71253;SDS011;59019;47.638;18.966;2023-03-24T07:13:05;22.05;;;12.10;;
71253;SDS011;59019;47.638;18.966;2023-03-24T07:15:32;16.70;;;10.30;;
71253;SDS011;59019;47.638;18.966;2023-03-24T07:17:57;17.73;;;10.38;;
71253;SDS011;59019;47.638;18.966;2023-03-24T07:20:23;18.17;;;10.90;;
71253;SDS011;59019;47.638;18.966;2023-03-24T07:22:49;18.58;;;10.45;;
71253;SDS011;59019;47.638;18.966;2023-03-24T07:25:14;17.87;;;10.77;;
71253;SDS011;59019;47.638;18.966;2023-03-24T07:27:44;17.58;;;11.10;;
71253;SDS011;59019;47.638;18.966;2023-03-24T07:30:10;17.90;;;11.25;;
71253;SDS011;59019;47.638;18.966;2023-03-24T07:32:37;18.93;;;11.93;;
71253;SDS011;59019;47.638;18.966;2023-03-24T07:35:04;18.25;;;11.85;;
71253;SDS011;59019;47.638;18.966;2023-03-24T07:37:31;23.80;;;12.75;;
71253;SDS011;59019;47.638;18.966;2023-03-24T07:39:57;17.80;;;11.47;;
71253;SDS011;59019;47.638;18.966;2023-03-24T07:42:23;18.90;;;11.95;;
71253;SDS011;59019;47.638;18.966;2023-03-24T07:44:49;19.47;;;12.10;;
71253;SDS011;59019;47.638;18.966;2023-03-24T07:47:16;21.58;;;11.35;;
71253;SDS011;59019;47.638;18.966;2023-03-24T07:49:42;18.13;;;11.73;;
71253;SDS011;59019;47.638;18.966;2023-03-24T07:52:07;19.77;;;12.23;;
71253;SDS011;59019;47.638;18.966;2023-03-24T07:54:33;20.13;;;11.07;;
71253;SDS011;59019;47.638;18.966;2023-03-24T07:56:59;19.48;;;12.40;;
71253;SDS011;59019;47.638;18.966;2023-03-24T07:59:25;18.93;;;11.63;;
71253;SDS011;59019;47.638;18.966;2023-03-24T08:01:51;17.98;;;12.48;;
71253;SDS011;59019;47.638;18.966;2023-03-24T08:04:17;18.23;;;11.80;;
71253;SDS011;59019;47.638;18.966;2023-03-24T08:06:42;18.30;;;11.80;;
71253;SDS011;59019;47.638;18.966;2023-03-24T08:09:09;17.83;;;11.20;;
71253;SDS011;59019;47.638;18.966;2023-03-24T08:11:35;15.77;;;10.48;;
71253;SDS011;59019;47.638;18.966;2023-03-24T08:14:01;19.47;;;11.73;;
71253;SDS011;59019;47.638;18.966;2023-03-24T08:16:27;16.65;;;10.48;;
71253;SDS011;59019;47.638;18.966;2023-03-24T08:18:52;17.00;;;10.33;;
71253;SDS011;59019;47.638;18.966;2023-03-24T08:21:18;18.47;;;11.20;;
71253;SDS011;59019;47.638;18.966;2023-03-24T08:23:43;18.70;;;10.73;;
71253;SDS011;59019;47.638;18.966;2023-03-24T08:26:09;21.40;;;12.07;;
71253;SDS011;59019;47.638;18.966;2023-03-24T08:28:35;19.67;;;12.02;;
71253;SDS011;59019;47.638;18.966;2023-03-24T08:31:02;17.53;;;11.60;;
71253;SDS011;59019;47.638;18.966;2023-03-24T08:33:28;19.08;;;12.30;;
71253;SDS011;59019;47.638;18.966;2023-03-24T08:35:54;17.20;;;12.02;;
71253;SDS011;59019;47.638;18.966;2023-03-24T08:38:23;21.45;;;12.18;;
71253;SDS011;59019;47.638;18.966;2023-03-24T08:40:54;18.10;;;11.40;;
71253;SDS011;59019;47.638;18.966;2023-03-24T08:43:26;18.70;;;11.35;;
71253;SDS011;59019;47.638;18.966;2023-03-24T08:45:55;22.85;;;12.07;;
71253;SDS011;59019;47.638;18.966;2023-03-24T08:48:22;18.25;;;11.63;;
71253;SDS011;59019;47.638;18.966;2023-03-24T08:50:48;18.05;;;11.07;;
71253;SDS011;59019;47.638;18.966;2023-03-24T08:53:13;19.27;;;11.33;;
71253;SDS011;59019;47.638;18.966;2023-03-24T08:55:39;17.53;;;11.50;;
71253;SDS011;59019;47.638;18.966;2023-03-24T08:58:07;19.40;;;10.93;;
71253;SDS011;59019;47.638;18.966;2023-03-24T09:00:37;14.90;;;9.98;;
71253;SDS011;59019;47.638;18.966;2023-03-24T09:03:04;16.25;;;9.73;;
71253;SDS011;59019;47.638;18.966;2023-03-24T09:05:31;16.08;;;10.27;;
71253;SDS011;59019;47.638;18.966;2023-03-24T09:07:57;17.23;;;10.73;;
71253;SDS011;59019;47.638;18.966;2023-03-24T09:10:25;16.02;;;10.45;;
71253;SDS011;59019;47.638;18.966;2023-03-24T09:12:51;14.93;;;9.25;;
71253;SDS011;59019;47.638;18.966;2023-03-24T09:15:16;12.23;;;8.03;;
71253;SDS011;59019;47.638;18.966;2023-03-24T09:17:42;11.25;;;7.57;;
71253;SDS011;59019;47.638;18.966;2023-03-24T09:20:10;13.32;;;7.00;;
71253;SDS011;59019;47.638;18.966;2023-03-24T09:22:38;11.00;;;6.93;;
71253;SDS011;59019;47.638;18.966;2023-03-24T09:25:09;10.70;;;6.47;;
71253;SDS011;59019;47.638;18.966;2023-03-24T09:27:36;10.37;;;7.13;;
71253;SDS011;59019;47.638;18.966;2023-03-24T09:30:02;13.30;;;7.00;;
71253;SDS011;59019;47.638;18.966;2023-03-24T09:32:27;12.23;;;7.68;;
71253;SDS011;59019;47.638;18.966;2023-03-24T09:34:53;14.43;;;7.03;;
71253;SDS011;59019;47.638;18.966;2023-03-24T09:37:20;11.57;;;8.07;;
71253;SDS011;59019;47.638;18.966;2023-03-24T09:39:46;12.50;;;7.72;;
71253;SDS011;59019;47.638;18.966;2023-03-24T09:42:18;11.98;;;7.88;;
71253;SDS011;59019;47.638;18.966;2023-03-24T09:44:47;13.30;;;7.63;;
71253;SDS011;59019;47.638;18.966;2023-03-24T09:47:23;15.10;;;8.47;;
71253;SDS011;59019;47.638;18.966;2023-03-24T09:49:54;13.57;;;8.35;;
71253;SDS011;59019;47.638;18.966;2023-03-24T09:52:26;13.43;;;7.82;;
71253;SDS011;59019;47.638;18.966;2023-03-24T09:54:58;13.57;;;7.53;;
71253;SDS011;59019;47.638;18.966;2023-03-24T10:02:47;9.73;;;6.72;;
71253;SDS011;59019;47.638;18.966;2023-03-24T10:08:42;12.73;;;6.35;;
71253;SDS011;59019;47.638;18.966;2023-03-24T10:10:37;12.52;;;6.47;;
71253;SDS011;59019;47.638;18.966;2023-03-24T10:13:18;10.20;;;6.23;;
71253;SDS011;59019;47.638;18.966;2023-03-24T10:21:36;9.50;;;6.18;;
71253;SDS011;59019;47.638;18.966;2023-03-24T10:31:57;10.68;;;6.50;;
71253;SDS011;59019;47.638;18.966;2023-03-24T10:34:55;11.60;;;6.35;;
71253;SDS011;59019;47.638;18.966;2023-03-24T10:37:24;11.25;;;6.78;;
71253;SDS011;59019;47.638;18.966;2023-03-24T10:39:53;12.03;;;6.47;;
71253;SDS011;59019;47.638;18.966;2023-03-24T10:42:22;10.80;;;6.50;;
71253;SDS011;59019;47.638;18.966;2023-03-24T10:44:49;10.60;;;6.40;;
71253;SDS011;59019;47.638;18.966;2023-03-24T10:47:17;11.97;;;6.37;;
71253;SDS011;59019;47.638;18.966;2023-03-24T10:50:06;14.43;;;6.53;;
71253;SDS011;59019;47.638;18.966;2023-03-24T10:52:37;10.73;;;6.10;;
71253;SDS011;59019;47.638;18.966;2023-03-24T10:55:04;12.10;;;6.53;;
71253;SDS011;59019;47.638;18.966;2023-03-24T10:57:31;12.20;;;6.72;;
71253;SDS011;59019;47.638;18.966;2023-03-24T11:02:43;14.40;;;6.63;;
71253;SDS011;59019;47.638;18.966;2023-03-24T11:05:16;14.95;;;6.40;;
71253;SDS011;59019;47.638;18.966;2023-03-24T11:07:45;12.32;;;6.47;;
71253;SDS011;59019;47.638;18.966;2023-03-24T11:10:30;11.02;;;6.40;;
71253;SDS011;59019;47.638;18.966;2023-03-24T11:15:22;10.93;;;5.97;;
71253;SDS011;59019;47.638;18.966;2023-03-24T11:20:35;9.82;;;5.30;;
71253;SDS011;59019;47.638;18.966;2023-03-24T11:25:31;10.93;;;4.97;;
71253;SDS011;59019;47.638;18.966;2023-03-24T11:28:01;8.82;;;4.47;;
71253;SDS011;59019;47.638;18.966;2023-03-24T11:30:45;10.90;;;4.70;;
71253;SDS011;59019;47.638;18.966;2023-03-24T11:35:51;10.57;;;4.75;;
71253;SDS011;59019;47.638;18.966;2023-03-24T11:38:18;9.32;;;4.18;;
71253;SDS011;59019;47.638;18.966;2023-03-24T11:40:53;10.70;;;4.77;;
71253;SDS011;59019;47.638;18.966;2023-03-24T11:43:22;8.77;;;4.50;;
71253;SDS011;59019;47.638;18.966;2023-03-24T11:45:57;17.90;;;8.50;;
71253;SDS011;59019;47.638;18.966;2023-03-24T11:48:44;16.48;;;6.75;;
71253;SDS011;59019;47.638;18.966;2023-03-24T11:51:22;10.20;;;4.30;;
71253;SDS011;59019;47.638;18.966;2023-03-24T11:53:54;9.38;;;4.47;;
71253;SDS011;59019;47.638;18.966;2023-03-24T11:56:26;8.95;;;4.22;;
71253;SDS011;59019;47.638;18.966;2023-03-24T11:59:12;9.82;;;4.70;;
71253;SDS011;59019;47.638;18.966;2023-03-24T12:12:48;11.27;;;3.70;;
71253;SDS011;59019;47.638;18.966;2023-03-24T12:23:35;6.95;;;3.47;;
71253;SDS011;59019;47.638;18.966;2023-03-24T12:42:41;6.22;;;2.40;;
71253;SDS011;59019;47.638;18.966;2023-03-24T12:48:19;5.80;;;2.63;;
71253;SDS011;59019;47.638;18.966;2023-03-24T12:58:43;5.80;;;3.10;;
71253;SDS011;59019;47.638;18.966;2023-03-24T13:01:24;6.72;;;2.80;;
71253;SDS011;59019;47.638;18.966;2023-03-24T13:04:39;5.88;;;2.83;;
71253;SDS011;59019;47.638;18.966;2023-03-24T13:06:50;6.57;;;2.60;;
71253;SDS011;59019;47.638;18.966;2023-03-24T13:23:01;5.75;;;2.35;;
71253;SDS011;59019;47.638;18.966;2023-03-24T13:25:44;5.10;;;2.33;;
71253;SDS011;59019;47.638;18.966;2023-03-24T13:28:19;4.82;;;2.00;;
71253;SDS011;59019;47.638;18.966;2023-03-24T13:30:52;6.88;;;2.38;;
71253;SDS011;59019;47.638;18.966;2023-03-24T13:33:20;7.88;;;2.47;;
71253;SDS011;59019;47.638;18.966;2023-03-24T13:35:59;5.50;;;2.30;;
71253;SDS011;59019;47.638;18.966;2023-03-24T13:38:56;8.43;;;2.28;;
71253;SDS011;59019;47.638;18.966;2023-03-24T13:41:26;5.13;;;2.30;;
71253;SDS011;59019;47.638;18.966;2023-03-24T13:44:05;4.78;;;2.50;;
71253;SDS011;59019;47.638;18.966;2023-03-24T13:46:36;4.90;;;2.55;;
71253;SDS011;59019;47.638;18.966;2023-03-24T13:49:07;5.65;;;2.10;;
71253;SDS011;59019;47.638;18.966;2023-03-24T13:51:39;6.13;;;2.35;;
71253;SDS011;59019;47.638;18.966;2023-03-24T13:54:19;6.15;;;2.25;;
71253;SDS011;59019;47.638;18.966;2023-03-24T13:56:51;6.75;;;2.40;;
71253;SDS011;59019;47.638;18.966;2023-03-24T14:02:08;4.53;;;2.40;;
71253;SDS011;59019;47.638;18.966;2023-03-24T14:04:49;4.43;;;2.20;;
71253;SDS011;59019;47.638;18.966;2023-03-24T14:15:27;4.50;;;2.30;;
71253;SDS011;59019;47.638;18.966;2023-03-24T14:17:54;6.85;;;2.40;;
71253;SDS011;59019;47.638;18.966;2023-03-24T14:20:31;5.57;;;2.25;;
71253;SDS011;59019;47.638;18.966;2023-03-24T14:22:59;6.22;;;2.35;;
71253;SDS011;59019;47.638;18.966;2023-03-24T14:25:28;5.47;;;2.30;;
71253;SDS011;59019;47.638;18.966;2023-03-24T14:28:06;5.78;;;2.35;;
71253;SDS011;59019;47.638;18.966;2023-03-24T14:31:00;6.30;;;2.20;;
71253;SDS011;59019;47.638;18.966;2023-03-24T14:33:26;6.00;;;2.33;;
71253;SDS011;59019;47.638;18.966;2023-03-24T14:35:57;5.28;;;2.30;;
71253;SDS011;59019;47.638;18.966;2023-03-24T14:38:29;4.35;;;2.08;;
71253;SDS011;59019;47.638;18.966;2023-03-24T14:41:04;5.35;;;2.40;;
71253;SDS011;59019;47.638;18.966;2023-03-24T14:46:46;5.00;;;2.50;;
71253;SDS011;59019;47.638;18.966;2023-03-24T14:49:10;4.82;;;2.40;;
71253;SDS011;59019;47.638;18.966;2023-03-24T14:56:49;5.17;;;2.47;;
71253;SDS011;59019;47.638;18.966;2023-03-24T14:59:38;4.93;;;2.50;;
71253;SDS011;59019;47.638;18.966;2023-03-24T15:08:14;22.35;;;7.43;;
71253;SDS011;59019;47.638;18.966;2023-03-24T15:13:26;8.48;;;2.97;;
71253;SDS011;59019;47.638;18.966;2023-03-24T15:18:42;17.37;;;6.60;;
71253;SDS011;59019;47.638;18.966;2023-03-24T15:21:25;8.00;;;3.13;;
71253;SDS011;59019;47.638;18.966;2023-03-24T15:23:51;37.30;;;11.13;;
71253;SDS011;59019;47.638;18.966;2023-03-24T15:26:18;31.50;;;10.18;;
71253;SDS011;59019;47.638;18.966;2023-03-24T15:28:46;13.18;;;5.22;;
71253;SDS011;59019;47.638;18.966;2023-03-24T15:31:17;34.73;;;13.57;;
71253;SDS011;59019;47.638;18.966;2023-03-24T15:33:44;9.38;;;4.07;;
71253;SDS011;59019;47.638;18.966;2023-03-24T15:36:12;20.67;;;10.20;;
71253;SDS011;59019;47.638;18.966;2023-03-24T15:38:44;5.35;;;2.70;;
71253;SDS011;59019;47.638;18.966;2023-03-24T15:41:11;7.43;;;2.97;;
71253;SDS011;59019;47.638;18.966;2023-03-24T15:43:43;12.00;;;5.40;;
71253;SDS011;59019;47.638;18.966;2023-03-24T15:46:27;15.07;;;6.72;;
71253;SDS011;59019;47.638;18.966;2023-03-24T15:48:54;7.18;;;3.38;;
71253;SDS011;59019;47.638;18.966;2023-03-24T15:54:30;8.77;;;3.20;;
71253;SDS011;59019;47.638;18.966;2023-03-24T15:57:14;6.13;;;3.00;;
71253;SDS011;59019;47.638;18.966;2023-03-24T15:59:49;16.20;;;7.90;;
71253;SDS011;59019;47.638;18.966;2023-03-24T16:02:47;18.23;;;7.45;;
71253;SDS011;59019;47.638;18.966;2023-03-24T16:05:23;14.15;;;6.22;;
71253;SDS011;59019;47.638;18.966;2023-03-24T16:13:18;12.88;;;6.80;;
71253;SDS011;59019;47.638;18.966;2023-03-24T16:18:22;6.78;;;3.20;;
71253;SDS011;59019;47.638;18.966;2023-03-24T16:21:00;7.38;;;3.55;;
71253;SDS011;59019;47.638;18.966;2023-03-24T16:23:27;5.50;;;2.70;;
71253;SDS011;59019;47.638;18.966;2023-03-24T16:25:54;6.57;;;3.28;;
71253;SDS011;59019;47.638;18.966;2023-03-24T16:28:20;11.32;;;7.63;;
71253;SDS011;59019;47.638;18.966;2023-03-24T16:30:48;7.10;;;3.13;;
71253;SDS011;59019;47.638;18.966;2023-03-24T16:33:21;7.28;;;3.08;;
71253;SDS011;59019;47.638;18.966;2023-03-24T16:35:47;4.90;;;2.70;;
71253;SDS011;59019;47.638;18.966;2023-03-24T16:38:15;6.82;;;2.40;;
71253;SDS011;59019;47.638;18.966;2023-03-24T16:40:51;6.25;;;2.70;;
71253;SDS011;59019;47.638;18.966;2023-03-24T16:43:19;5.50;;;2.63;;
71253;SDS011;59019;47.638;18.966;2023-03-24T16:45:46;4.82;;;2.90;;
71253;SDS011;59019;47.638;18.966;2023-03-24T16:48:14;4.18;;;2.28;;
71253;SDS011;59019;47.638;18.966;2023-03-24T16:50:42;5.97;;;2.90;;
71253;SDS011;59019;47.638;18.966;2023-03-24T16:53:14;6.30;;;3.47;;
71253;SDS011;59019;47.638;18.966;2023-03-24T16:55:39;14.50;;;6.20;;
71253;SDS011;59019;47.638;18.966;2023-03-24T16:58:06;8.75;;;4.20;;
71253;SDS011;59019;47.638;18.966;2023-03-24T17:00:32;12.35;;;7.18;;
71253;SDS011;59019;47.638;18.966;2023-03-24T17:03:01;17.63;;;10.32;;
71253;SDS011;59019;47.638;18.966;2023-03-24T17:05:28;7.63;;;4.17;;
71253;SDS011;59019;47.638;18.966;2023-03-24T17:07:58;11.15;;;4.97;;
71253;SDS011;59019;47.638;18.966;2023-03-24T17:10:25;12.20;;;4.65;;
71253;SDS011;59019;47.638;18.966;2023-03-24T17:12:52;9.05;;;4.35;;
71253;SDS011;59019;47.638;18.966;2023-03-24T17:17:53;5.30;;;2.70;;
71253;SDS011;59019;47.638;18.966;2023-03-24T17:20:20;8.60;;;3.05;;
71253;SDS011;59019;47.638;18.966;2023-03-24T17:22:48;9.13;;;3.97;;
71253;SDS011;59019;47.638;18.966;2023-03-24T17:25:16;17.42;;;12.32;;
71253;SDS011;59019;47.638;18.966;2023-03-24T17:27:45;9.93;;;4.90;;
71253;SDS011;59019;47.638;18.966;2023-03-24T17:30:14;10.10;;;4.33;;
71253;SDS011;59019;47.638;18.966;2023-03-24T17:32:45;11.73;;;5.40;;
71253;SDS011;59019;47.638;18.966;2023-03-24T17:35:12;10.73;;;6.10;;
71253;SDS011;59019;47.638;18.966;2023-03-24T17:37:40;18.70;;;9.57;;
71253;SDS011;59019;47.638;18.966;2023-03-24T17:40:06;23.08;;;11.20;;
71253;SDS011;59019;47.638;18.966;2023-03-24T17:42:34;16.80;;;8.00;;
71253;SDS011;59019;47.638;18.966;2023-03-24T17:45:01;8.77;;;4.07;;
71253;SDS011;59019;47.638;18.966;2023-03-24T17:47:28;11.10;;;5.47;;
71253;SDS011;59019;47.638;18.966;2023-03-24T17:49:54;13.73;;;5.25;;
71253;SDS011;59019;47.638;18.966;2023-03-24T17:52:20;68.75;;;25.95;;
71253;SDS011;59019;47.638;18.966;2023-03-24T17:54:46;146.77;;;59.38;;
71253;SDS011;59019;47.638;18.966;2023-03-24T17:57:12;107.17;;;42.77;;
71253;SDS011;59019;47.638;18.966;2023-03-24T17:59:37;48.73;;;21.63;;
71253;SDS011;59019;47.638;18.966;2023-03-24T18:02:04;97.28;;;38.42;;
71253;SDS011;59019;47.638;18.966;2023-03-24T18:04:30;104.10;;;35.27;;